sensor_id;sensor_type;location;lat;lon;timestamp;temperature;humidity
16321;DHT22;8269;50.990;4.494;2022-09-09T00:03:57;14.20;99.90
16321;DHT22;8269;50.990;4.494;2022-09-09T00:06:30;14.20;99.90
16321;DHT22;8269;50.990;4.494;2022-09-09T00:09:26;14.20;99.90
16321;DHT22;8269;50.990;4.494;2022-09-09T00:12:51;14.20;99.90
16321;DHT22;8269;50.990;4.494;2022-09-09T00:14:58;14.20;99.90
16321;DHT22;8269;50.990;4.494;2022-09-09T00:17:49;14.10;99.90
16321;DHT22;8269;50.990;4.494;2022-09-09T00:20:40;14.10;99.90
16321;DHT22;8269;50.990;4.494;2022-09-09T00:23:25;14.20;99.90
16321;DHT22;8269;50.990;4.494;2022-09-09T00:28:35;14.30;99.90
16321;DHT22;8269;50.990;4.494;2022-09-09T00:31:23;14.40;99.90
16321;DHT22;8269;50.990;4.494;2022-09-09T00:33:50;14.50;99.90
16321;DHT22;8269;50.990;4.494;2022-09-09T00:36:22;14.50;99.90
16321;DHT22;8269;50.990;4.494;2022-09-09T00:38:56;14.50;99.90
16321;DHT22;8269;50.990;4.494;2022-09-09T00:44:02;14.50;99.90
16321;DHT22;8269;50.990;4.494;2022-09-09T00:46:43;14.40;99.90
16321;DHT22;8269;50.990;4.494;2022-09-09T00:52:17;14.50;99.90
16321;DHT22;8269;50.990;4.494;2022-09-09T00:57:32;14.50;99.90
16321;DHT22;8269;50.990;4.494;2022-09-09T01:00:39;14.40;99.90
16321;DHT22;8269;50.990;4.494;2022-09-09T01:03:22;14.40;99.90
16321;DHT22;8269;50.990;4.494;2022-09-09T01:11:52;14.50;99.90
16321;DHT22;8269;50.990;4.494;2022-09-09T01:14:32;14.40;99.90
16321;DHT22;8269;50.990;4.494;2022-09-09T01:17:24;14.40;99.90
16321;DHT22;8269;50.990;4.494;2022-09-09T01:25:20;14.30;99.90
16321;DHT22;8269;50.990;4.494;2022-09-09T01:27:51;14.30;99.90
16321;DHT22;8269;50.990;4.494;2022-09-09T01:30:20;14.30;99.90
16321;DHT22;8269;50.990;4.494;2022-09-09T01:32:53;14.30;99.90
16321;DHT22;8269;50.990;4.494;2022-09-09T01:35:23;14.30;99.90
16321;DHT22;8269;50.990;4.494;2022-09-09T01:37:52;14.30;99.90
16321;DHT22;8269;50.990;4.494;2022-09-09T01:40:17;14.30;99.90
16321;DHT22;8269;50.990;4.494;2022-09-09T01:42:43;14.30;99.90
16321;DHT22;8269;50.990;4.494;2022-09-09T01:45:09;14.30;99.90
16321;DHT22;8269;50.990;4.494;2022-09-09T01:47:35;14.30;99.90
16321;DHT22;8269;50.990;4.494;2022-09-09T01:50:02;14.30;99.90
16321;DHT22;8269;50.990;4.494;2022-09-09T01:52:28;14.30;99.90
16321;DHT22;8269;50.990;4.494;2022-09-09T01:54:54;14.30;99.90
16321;DHT22;8269;50.990;4.494;2022-09-09T02:00:04;14.30;99.90
16321;DHT22;8269;50.990;4.494;2022-09-09T02:05:38;14.30;99.90
16321;DHT22;8269;50.990;4.494;2022-09-09T02:10:46;14.20;99.90
16321;DHT22;8269;50.990;4.494;2022-09-09T02:13:17;14.20;99.90
16321;DHT22;8269;50.990;4.494;2022-09-09T02:18:11;14.20;99.90
16321;DHT22;8269;50.990;4.494;2022-09-09T02:20:38;14.20;99.90
16321;DHT22;8269;50.990;4.494;2022-09-09T02:23:05;14.20;99.90
16321;DHT22;8269;50.990;4.494;2022-09-09T02:25:34;14.20;99.90
16321;DHT22;8269;50.990;4.494;2022-09-09T02:28:03;14.10;99.90
16321;DHT22;8269;50.990;4.494;2022-09-09T02:30:31;14.10;99.90
16321;DHT22;8269;50.990;4.494;2022-09-09T02:32:59;14.10;99.90
16321;DHT22;8269;50.990;4.494;2022-09-09T02:35:28;14.10;99.90
16321;DHT22;8269;50.990;4.494;2022-09-09T02:37:58;14.10;99.90
16321;DHT22;8269;50.990;4.494;2022-09-09T02:40:24;14.10;99.90
16321;DHT22;8269;50.990;4.494;2022-09-09T02:42:50;14.10;99.90
16321;DHT22;8269;50.990;4.494;2022-09-09T02:45:18;14.10;99.90
16321;DHT22;8269;50.990;4.494;2022-09-09T02:50:29;14.10;99.90
16321;DHT22;8269;50.990;4.494;2022-09-09T02:53:07;14.10;99.90
16321;DHT22;8269;50.990;4.494;2022-09-09T02:55:51;14.10;99.90
16321;DHT22;8269;50.990;4.494;2022-09-09T02:58:20;14.10;99.90
16321;DHT22;8269;50.990;4.494;2022-09-09T03:00:48;14.10;99.90
16321;DHT22;8269;50.990;4.494;2022-09-09T03:03:15;14.10;99.90
16321;DHT22;8269;50.990;4.494;2022-09-09T03:05:42;14.20;99.90
16321;DHT22;8269;50.990;4.494;2022-09-09T03:08:08;14.20;99.90
16321;DHT22;8269;50.990;4.494;2022-09-09T03:10:33;14.20;99.90
16321;DHT22;8269;50.990;4.494;2022-09-09T03:13:00;14.20;99.90
16321;DHT22;8269;50.990;4.494;2022-09-09T03:15:26;14.20;99.90
16321;DHT22;8269;50.990;4.494;2022-09-09T03:17:57;14.30;99.90
16321;DHT22;8269;50.990;4.494;2022-09-09T03:20:26;14.30;99.90
16321;DHT22;8269;50.990;4.494;2022-09-09T03:22:53;14.30;99.90
16321;DHT22;8269;50.990;4.494;2022-09-09T03:25:19;14.30;99.90
16321;DHT22;8269;50.990;4.494;2022-09-09T03:27:44;14.40;99.90
16321;DHT22;8269;50.990;4.494;2022-09-09T03:30:10;14.40;99.90
16321;DHT22;8269;50.990;4.494;2022-09-09T03:32:36;14.40;99.90
16321;DHT22;8269;50.990;4.494;2022-09-09T03:35:03;14.50;99.90
16321;DHT22;8269;50.990;4.494;2022-09-09T03:37:28;14.50;99.90
16321;DHT22;8269;50.990;4.494;2022-09-09T03:39:54;14.60;99.90
16321;DHT22;8269;50.990;4.494;2022-09-09T03:42:20;14.60;99.90
16321;DHT22;8269;50.990;4.494;2022-09-09T03:44:46;14.60;99.90
16321;DHT22;8269;50.990;4.494;2022-09-09T03:47:17;14.60;99.90
16321;DHT22;8269;50.990;4.494;2022-09-09T03:49:43;14.60;99.90
16321;DHT22;8269;50.990;4.494;2022-09-09T03:52:09;14.60;99.90
16321;DHT22;8269;50.990;4.494;2022-09-09T03:54:35;14.70;99.90
16321;DHT22;8269;50.990;4.494;2022-09-09T03:57:02;14.70;99.90
16321;DHT22;8269;50.990;4.494;2022-09-09T03:59:27;14.70;99.90
16321;DHT22;8269;50.990;4.494;2022-09-09T04:01:53;14.60;99.90
16321;DHT22;8269;50.990;4.494;2022-09-09T04:04:20;14.70;99.90
16321;DHT22;8269;50.990;4.494;2022-09-09T04:06:46;14.60;99.90
16321;DHT22;8269;50.990;4.494;2022-09-09T04:09:14;14.60;99.90
16321;DHT22;8269;50.990;4.494;2022-09-09T04:11:39;14.60;99.90
16321;DHT22;8269;50.990;4.494;2022-09-09T04:14:05;14.60;99.90
16321;DHT22;8269;50.990;4.494;2022-09-09T04:16:32;14.60;99.90
16321;DHT22;8269;50.990;4.494;2022-09-09T04:18:58;14.50;99.90
16321;DHT22;8269;50.990;4.494;2022-09-09T04:21:25;14.60;99.90
16321;DHT22;8269;50.990;4.494;2022-09-09T04:23:51;14.50;99.90
16321;DHT22;8269;50.990;4.494;2022-09-09T04:26:16;14.50;99.90
16321;DHT22;8269;50.990;4.494;2022-09-09T04:28:42;14.60;99.90
16321;DHT22;8269;50.990;4.494;2022-09-09T04:31:12;14.60;99.90
16321;DHT22;8269;50.990;4.494;2022-09-09T04:33:40;14.60;99.90
16321;DHT22;8269;50.990;4.494;2022-09-09T04:36:06;14.60;99.90
16321;DHT22;8269;50.990;4.494;2022-09-09T04:38:32;14.60;99.90
16321;DHT22;8269;50.990;4.494;2022-09-09T04:40:58;14.60;99.90
16321;DHT22;8269;50.990;4.494;2022-09-09T04:43:24;14.60;99.90
16321;DHT22;8269;50.990;4.494;2022-09-09T04:45:51;14.50;99.90
16321;DHT22;8269;50.990;4.494;2022-09-09T04:48:18;14.50;99.90
16321;DHT22;8269;50.990;4.494;2022-09-09T04:50:44;14.50;99.90
16321;DHT22;8269;50.990;4.494;2022-09-09T04:53:18;14.50;99.90
16321;DHT22;8269;50.990;4.494;2022-09-09T04:55:44;14.50;99.90
16321;DHT22;8269;50.990;4.494;2022-09-09T04:58:09;14.50;99.90
16321;DHT22;8269;50.990;4.494;2022-09-09T05:00:35;14.50;99.90
16321;DHT22;8269;50.990;4.494;2022-09-09T05:03:05;14.50;99.90
16321;DHT22;8269;50.990;4.494;2022-09-09T05:05:32;14.50;99.90
16321;DHT22;8269;50.990;4.494;2022-09-09T05:08:07;14.50;99.90
16321;DHT22;8269;50.990;4.494;2022-09-09T05:10:35;14.50;99.90
16321;DHT22;8269;50.990;4.494;2022-09-09T05:13:01;14.50;99.90
16321;DHT22;8269;50.990;4.494;2022-09-09T05:15:27;14.50;99.90
16321;DHT22;8269;50.990;4.494;2022-09-09T05:17:57;14.50;99.90
16321;DHT22;8269;50.990;4.494;2022-09-09T05:20:24;14.60;99.90
16321;DHT22;8269;50.990;4.494;2022-09-09T05:22:53;14.70;99.90
16321;DHT22;8269;50.990;4.494;2022-09-09T05:25:19;14.70;99.90
16321;DHT22;8269;50.990;4.494;2022-09-09T05:27:45;14.70;99.90
16321;DHT22;8269;50.990;4.494;2022-09-09T05:30:11;14.70;99.90
16321;DHT22;8269;50.990;4.494;2022-09-09T05:32:37;14.80;99.90
16321;DHT22;8269;50.990;4.494;2022-09-09T05:35:03;14.90;99.90
16321;DHT22;8269;50.990;4.494;2022-09-09T05:37:30;15.00;99.90
16321;DHT22;8269;50.990;4.494;2022-09-09T05:39:56;15.10;99.90
16321;DHT22;8269;50.990;4.494;2022-09-09T05:42:23;15.20;99.90
16321;DHT22;8269;50.990;4.494;2022-09-09T05:44:49;15.30;99.90
16321;DHT22;8269;50.990;4.494;2022-09-09T05:47:16;15.30;99.90
16321;DHT22;8269;50.990;4.494;2022-09-09T05:49:42;15.40;99.90
16321;DHT22;8269;50.990;4.494;2022-09-09T05:52:08;15.40;99.90
16321;DHT22;8269;50.990;4.494;2022-09-09T05:54:35;15.40;99.90
16321;DHT22;8269;50.990;4.494;2022-09-09T05:57:03;15.40;99.90
16321;DHT22;8269;50.990;4.494;2022-09-09T05:59:29;15.40;99.90
16321;DHT22;8269;50.990;4.494;2022-09-09T06:01:54;15.40;99.90
16321;DHT22;8269;50.990;4.494;2022-09-09T06:04:20;15.40;99.90
16321;DHT22;8269;50.990;4.494;2022-09-09T06:06:50;15.30;99.90
16321;DHT22;8269;50.990;4.494;2022-09-09T06:09:17;15.30;99.90
16321;DHT22;8269;50.990;4.494;2022-09-09T06:11:43;15.30;99.90
16321;DHT22;8269;50.990;4.494;2022-09-09T06:14:09;15.30;99.90
16321;DHT22;8269;50.990;4.494;2022-09-09T06:16:35;15.40;99.90
16321;DHT22;8269;50.990;4.494;2022-09-09T06:19:02;15.50;99.90
16321;DHT22;8269;50.990;4.494;2022-09-09T06:21:34;15.60;99.90
16321;DHT22;8269;50.990;4.494;2022-09-09T06:24:02;15.60;99.90
16321;DHT22;8269;50.990;4.494;2022-09-09T06:26:31;15.60;99.90
16321;DHT22;8269;50.990;4.494;2022-09-09T06:29:07;15.70;99.90
16321;DHT22;8269;50.990;4.494;2022-09-09T06:31:34;16.00;99.90
16321;DHT22;8269;50.990;4.494;2022-09-09T06:34:01;16.20;99.90
16321;DHT22;8269;50.990;4.494;2022-09-09T06:36:30;16.60;99.90
16321;DHT22;8269;50.990;4.494;2022-09-09T06:38:57;16.60;99.90
16321;DHT22;8269;50.990;4.494;2022-09-09T06:41:30;16.60;99.90
16321;DHT22;8269;50.990;4.494;2022-09-09T06:43:56;16.50;99.90
16321;DHT22;8269;50.990;4.494;2022-09-09T06:46:28;16.40;99.90
16321;DHT22;8269;50.990;4.494;2022-09-09T06:48:57;16.20;99.90
16321;DHT22;8269;50.990;4.494;2022-09-09T06:51:26;16.10;99.90
16321;DHT22;8269;50.990;4.494;2022-09-09T06:53:54;16.00;99.90
16321;DHT22;8269;50.990;4.494;2022-09-09T06:56:32;16.00;99.90
16321;DHT22;8269;50.990;4.494;2022-09-09T07:01:31;16.20;99.90
16321;DHT22;8269;50.990;4.494;2022-09-09T07:03:58;16.10;99.90
16321;DHT22;8269;50.990;4.494;2022-09-09T07:06:29;16.10;99.90
16321;DHT22;8269;50.990;4.494;2022-09-09T07:09:00;16.10;99.90
16321;DHT22;8269;50.990;4.494;2022-09-09T07:11:31;16.10;99.90
16321;DHT22;8269;50.990;4.494;2022-09-09T07:13:58;16.20;99.90
16321;DHT22;8269;50.990;4.494;2022-09-09T07:16:25;16.20;99.90
16321;DHT22;8269;50.990;4.494;2022-09-09T07:18:54;16.20;99.90
16321;DHT22;8269;50.990;4.494;2022-09-09T07:21:27;16.20;99.90
16321;DHT22;8269;50.990;4.494;2022-09-09T07:23:54;16.20;99.90
16321;DHT22;8269;50.990;4.494;2022-09-09T07:26:22;16.20;99.90
16321;DHT22;8269;50.990;4.494;2022-09-09T07:28:48;16.30;99.90
16321;DHT22;8269;50.990;4.494;2022-09-09T07:31:17;16.40;99.90
16321;DHT22;8269;50.990;4.494;2022-09-09T07:33:44;16.40;99.90
16321;DHT22;8269;50.990;4.494;2022-09-09T07:36:16;16.40;99.90
16321;DHT22;8269;50.990;4.494;2022-09-09T07:38:50;16.40;99.90
16321;DHT22;8269;50.990;4.494;2022-09-09T07:41:22;16.40;99.90
16321;DHT22;8269;50.990;4.494;2022-09-09T07:43:49;16.50;99.90
16321;DHT22;8269;50.990;4.494;2022-09-09T07:46:17;16.40;99.90
16321;DHT22;8269;50.990;4.494;2022-09-09T07:48:50;16.50;99.90
16321;DHT22;8269;50.990;4.494;2022-09-09T07:51:22;16.50;99.90
16321;DHT22;8269;50.990;4.494;2022-09-09T07:53:53;16.50;99.90
16321;DHT22;8269;50.990;4.494;2022-09-09T07:56:19;16.50;99.90
16321;DHT22;8269;50.990;4.494;2022-09-09T07:58:52;16.50;99.90
16321;DHT22;8269;50.990;4.494;2022-09-09T08:01:32;16.50;99.90
16321;DHT22;8269;50.990;4.494;2022-09-09T08:04:03;16.60;99.90
16321;DHT22;8269;50.990;4.494;2022-09-09T08:06:34;16.70;99.90
16321;DHT22;8269;50.990;4.494;2022-09-09T08:09:00;16.80;99.90
16321;DHT22;8269;50.990;4.494;2022-09-09T08:11:30;17.00;99.90
16321;DHT22;8269;50.990;4.494;2022-09-09T08:13:56;17.30;99.90
16321;DHT22;8269;50.990;4.494;2022-09-09T08:16:24;17.50;99.90
16321;DHT22;8269;50.990;4.494;2022-09-09T08:18:51;17.80;99.90
16321;DHT22;8269;50.990;4.494;2022-09-09T08:21:20;18.00;99.90
16321;DHT22;8269;50.990;4.494;2022-09-09T08:23:47;17.90;99.90
16321;DHT22;8269;50.990;4.494;2022-09-09T08:26:31;17.80;99.90
16321;DHT22;8269;50.990;4.494;2022-09-09T08:28:59;17.60;99.90
16321;DHT22;8269;50.990;4.494;2022-09-09T08:33:54;17.50;99.90
16321;DHT22;8269;50.990;4.494;2022-09-09T08:36:26;17.40;99.90
16321;DHT22;8269;50.990;4.494;2022-09-09T08:38:54;17.20;99.90
16321;DHT22;8269;50.990;4.494;2022-09-09T08:47:15;17.20;99.90
16321;DHT22;8269;50.990;4.494;2022-09-09T08:54:47;17.20;99.90
16321;DHT22;8269;50.990;4.494;2022-09-09T08:57:21;17.10;99.90
16321;DHT22;8269;50.990;4.494;2022-09-09T08:59:52;17.00;99.90
16321;DHT22;8269;50.990;4.494;2022-09-09T09:11:04;16.70;99.90
16321;DHT22;8269;50.990;4.494;2022-09-09T09:16:51;16.70;99.90
16321;DHT22;8269;50.990;4.494;2022-09-09T09:19:18;16.70;99.90
16321;DHT22;8269;50.990;4.494;2022-09-09T09:22:06;16.70;99.90
16321;DHT22;8269;50.990;4.494;2022-09-09T09:27:14;16.70;99.90
16321;DHT22;8269;50.990;4.494;2022-09-09T09:29:41;16.60;99.90
16321;DHT22;8269;50.990;4.494;2022-09-09T09:32:12;16.60;99.90
16321;DHT22;8269;50.990;4.494;2022-09-09T09:34:39;16.70;99.90
16321;DHT22;8269;50.990;4.494;2022-09-09T09:37:20;16.60;99.90
16321;DHT22;8269;50.990;4.494;2022-09-09T09:39:49;16.60;99.90
16321;DHT22;8269;50.990;4.494;2022-09-09T09:42:17;16.70;99.90
16321;DHT22;8269;50.990;4.494;2022-09-09T09:47:20;16.70;99.90
16321;DHT22;8269;50.990;4.494;2022-09-09T09:49:57;16.60;99.90
16321;DHT22;8269;50.990;4.494;2022-09-09T09:52:28;16.80;99.90
16321;DHT22;8269;50.990;4.494;2022-09-09T09:54:57;16.80;99.90
16321;DHT22;8269;50.990;4.494;2022-09-09T09:57:26;16.80;99.90
16321;DHT22;8269;50.990;4.494;2022-09-09T10:00:22;16.90;99.90
16321;DHT22;8269;50.990;4.494;2022-09-09T10:02:49;16.90;99.90
16321;DHT22;8269;50.990;4.494;2022-09-09T10:05:28;16.90;99.90
16321;DHT22;8269;50.990;4.494;2022-09-09T10:08:15;16.90;99.90
16321;DHT22;8269;50.990;4.494;2022-09-09T10:12:15;16.90;99.90
16321;DHT22;8269;50.990;4.494;2022-09-09T10:20:04;17.10;99.90
16321;DHT22;8269;50.990;4.494;2022-09-09T10:22:39;17.10;99.90
16321;DHT22;8269;50.990;4.494;2022-09-09T10:28:28;16.90;99.90
16321;DHT22;8269;50.990;4.494;2022-09-09T10:34:19;17.00;99.90
16321;DHT22;8269;50.990;4.494;2022-09-09T10:36:49;17.20;99.90
16321;DHT22;8269;50.990;4.494;2022-09-09T10:39:39;17.30;99.90
16321;DHT22;8269;50.990;4.494;2022-09-09T10:42:16;17.50;99.90
16321;DHT22;8269;50.990;4.494;2022-09-09T10:45:17;17.60;99.90
16321;DHT22;8269;50.990;4.494;2022-09-09T10:47:59;17.80;99.90
16321;DHT22;8269;50.990;4.494;2022-09-09T10:50:52;17.90;99.90
16321;DHT22;8269;50.990;4.494;2022-09-09T10:56:10;17.90;99.90
16321;DHT22;8269;50.990;4.494;2022-09-09T10:58:41;17.90;99.90
16321;DHT22;8269;50.990;4.494;2022-09-09T11:01:29;18.10;99.90
16321;DHT22;8269;50.990;4.494;2022-09-09T11:04:02;18.30;99.90
16321;DHT22;8269;50.990;4.494;2022-09-09T11:06:34;18.50;99.90
16321;DHT22;8269;50.990;4.494;2022-09-09T11:09:04;18.50;99.90
16321;DHT22;8269;50.990;4.494;2022-09-09T11:11:45;18.60;99.90
16321;DHT22;8269;50.990;4.494;2022-09-09T11:17:05;18.40;99.70
16321;DHT22;8269;50.990;4.494;2022-09-09T11:19:36;18.30;99.90
16321;DHT22;8269;50.990;4.494;2022-09-09T11:24:53;18.50;99.90
16321;DHT22;8269;50.990;4.494;2022-09-09T11:30:22;18.60;98.80
16321;DHT22;8269;50.990;4.494;2022-09-09T11:38:47;18.80;97.60
16321;DHT22;8269;50.990;4.494;2022-09-09T11:41:16;18.90;98.00
16321;DHT22;8269;50.990;4.494;2022-09-09T11:43:48;19.00;97.10
16321;DHT22;8269;50.990;4.494;2022-09-09T11:46:22;19.10;96.40
16321;DHT22;8269;50.990;4.494;2022-09-09T11:49:04;19.00;96.20
16321;DHT22;8269;50.990;4.494;2022-09-09T11:51:32;18.90;96.70
16321;DHT22;8269;50.990;4.494;2022-09-09T11:54:44;19.00;97.40
16321;DHT22;8269;50.990;4.494;2022-09-09T11:56:47;19.20;96.90
16321;DHT22;8269;50.990;4.494;2022-09-09T11:59:27;19.20;96.50
16321;DHT22;8269;50.990;4.494;2022-09-09T12:02:08;19.10;96.50
16321;DHT22;8269;50.990;4.494;2022-09-09T12:04:40;19.10;97.00
16321;DHT22;8269;50.990;4.494;2022-09-09T12:14:44;19.40;95.90
16321;DHT22;8269;50.990;4.494;2022-09-09T12:17:21;19.30;96.10
16321;DHT22;8269;50.990;4.494;2022-09-09T12:19:48;19.40;96.20
16321;DHT22;8269;50.990;4.494;2022-09-09T12:31:20;19.40;96.10
16321;DHT22;8269;50.990;4.494;2022-09-09T12:33:47;19.40;96.30
16321;DHT22;8269;50.990;4.494;2022-09-09T12:36:33;19.50;96.10
16321;DHT22;8269;50.990;4.494;2022-09-09T12:39:18;19.50;96.30
16321;DHT22;8269;50.990;4.494;2022-09-09T12:41:52;19.50;95.80
16321;DHT22;8269;50.990;4.494;2022-09-09T12:46:54;19.40;96.10
16321;DHT22;8269;50.990;4.494;2022-09-09T12:49:35;19.50;96.80
16321;DHT22;8269;50.990;4.494;2022-09-09T12:52:34;19.50;96.00
16321;DHT22;8269;50.990;4.494;2022-09-09T12:55:04;19.50;96.20
16321;DHT22;8269;50.990;4.494;2022-09-09T12:57:36;19.50;95.20
16321;DHT22;8269;50.990;4.494;2022-09-09T13:00:16;19.60;95.50
16321;DHT22;8269;50.990;4.494;2022-09-09T13:02:47;19.70;95.20
16321;DHT22;8269;50.990;4.494;2022-09-09T13:05:37;19.70;94.80
16321;DHT22;8269;50.990;4.494;2022-09-09T13:08:06;19.80;95.50
16321;DHT22;8269;50.990;4.494;2022-09-09T13:10:54;19.70;94.80
16321;DHT22;8269;50.990;4.494;2022-09-09T13:13:36;19.90;95.20
16321;DHT22;8269;50.990;4.494;2022-09-09T13:16:05;20.10;94.40
16321;DHT22;8269;50.990;4.494;2022-09-09T13:18:35;20.40;94.10
16321;DHT22;8269;50.990;4.494;2022-09-09T13:21:01;20.50;93.50
16321;DHT22;8269;50.990;4.494;2022-09-09T13:23:35;20.50;93.20
16321;DHT22;8269;50.990;4.494;2022-09-09T13:26:05;20.50;93.70
16321;DHT22;8269;50.990;4.494;2022-09-09T13:28:31;20.70;92.70
16321;DHT22;8269;50.990;4.494;2022-09-09T13:30:59;20.50;92.40
16321;DHT22;8269;50.990;4.494;2022-09-09T13:33:36;20.40;92.80
16321;DHT22;8269;50.990;4.494;2022-09-09T13:36:08;20.30;92.00
16321;DHT22;8269;50.990;4.494;2022-09-09T13:39:01;20.20;92.10
16321;DHT22;8269;50.990;4.494;2022-09-09T13:41:43;19.90;92.70
16321;DHT22;8269;50.990;4.494;2022-09-09T13:44:24;20.00;93.20
16321;DHT22;8269;50.990;4.494;2022-09-09T13:47:06;20.10;93.60
16321;DHT22;8269;50.990;4.494;2022-09-09T13:49:32;20.10;93.10
16321;DHT22;8269;50.990;4.494;2022-09-09T13:52:16;20.10;92.80
16321;DHT22;8269;50.990;4.494;2022-09-09T13:54:50;20.00;93.10
16321;DHT22;8269;50.990;4.494;2022-09-09T13:57:20;20.10;93.00
16321;DHT22;8269;50.990;4.494;2022-09-09T13:59:47;20.10;93.00
16321;DHT22;8269;50.990;4.494;2022-09-09T14:02:13;20.40;93.00
16321;DHT22;8269;50.990;4.494;2022-09-09T14:04:39;20.50;92.80
16321;DHT22;8269;50.990;4.494;2022-09-09T14:07:11;20.60;91.90
16321;DHT22;8269;50.990;4.494;2022-09-09T14:09:37;20.40;92.10
16321;DHT22;8269;50.990;4.494;2022-09-09T14:12:03;20.30;91.60
16321;DHT22;8269;50.990;4.494;2022-09-09T14:14:30;20.20;91.90
16321;DHT22;8269;50.990;4.494;2022-09-09T14:16:55;20.20;92.10
16321;DHT22;8269;50.990;4.494;2022-09-09T14:19:21;20.10;92.30
16321;DHT22;8269;50.990;4.494;2022-09-09T14:21:46;20.10;92.80
16321;DHT22;8269;50.990;4.494;2022-09-09T14:24:12;20.10;92.70
16321;DHT22;8269;50.990;4.494;2022-09-09T14:26:38;20.20;92.60
16321;DHT22;8269;50.990;4.494;2022-09-09T14:29:03;20.10;92.60
16321;DHT22;8269;50.990;4.494;2022-09-09T14:31:29;20.10;92.80
16321;DHT22;8269;50.990;4.494;2022-09-09T14:33:55;20.30;92.00
16321;DHT22;8269;50.990;4.494;2022-09-09T14:36:20;20.40;91.70
16321;DHT22;8269;50.990;4.494;2022-09-09T14:38:46;20.30;91.50
16321;DHT22;8269;50.990;4.494;2022-09-09T14:41:15;20.30;91.40
16321;DHT22;8269;50.990;4.494;2022-09-09T14:43:46;20.30;91.60
16321;DHT22;8269;50.990;4.494;2022-09-09T14:46:14;20.30;91.60
16321;DHT22;8269;50.990;4.494;2022-09-09T14:48:40;20.20;91.50
16321;DHT22;8269;50.990;4.494;2022-09-09T14:51:18;20.10;91.90
16321;DHT22;8269;50.990;4.494;2022-09-09T14:53:45;20.20;93.40
16321;DHT22;8269;50.990;4.494;2022-09-09T14:56:17;20.20;92.30
16321;DHT22;8269;50.990;4.494;2022-09-09T14:58:43;20.20;92.10
16321;DHT22;8269;50.990;4.494;2022-09-09T15:01:14;20.10;92.10
16321;DHT22;8269;50.990;4.494;2022-09-09T15:03:41;20.10;92.30
16321;DHT22;8269;50.990;4.494;2022-09-09T15:06:13;20.10;92.60
16321;DHT22;8269;50.990;4.494;2022-09-09T15:08:44;20.20;92.50
16321;DHT22;8269;50.990;4.494;2022-09-09T15:11:10;20.10;92.80
16321;DHT22;8269;50.990;4.494;2022-09-09T15:13:38;20.30;92.80
16321;DHT22;8269;50.990;4.494;2022-09-09T15:16:12;20.30;92.60
16321;DHT22;8269;50.990;4.494;2022-09-09T15:18:39;20.40;92.50
16321;DHT22;8269;50.990;4.494;2022-09-09T15:21:16;20.50;92.60
16321;DHT22;8269;50.990;4.494;2022-09-09T15:23:43;20.80;92.50
16321;DHT22;8269;50.990;4.494;2022-09-09T15:26:09;21.00;91.30
16321;DHT22;8269;50.990;4.494;2022-09-09T15:28:36;21.00;90.10
16321;DHT22;8269;50.990;4.494;2022-09-09T15:31:23;21.00;88.50
16321;DHT22;8269;50.990;4.494;2022-09-09T15:33:51;21.00;87.90
16321;DHT22;8269;50.990;4.494;2022-09-09T15:36:22;20.90;88.10
16321;DHT22;8269;50.990;4.494;2022-09-09T15:38:49;20.90;88.60
16321;DHT22;8269;50.990;4.494;2022-09-09T15:41:16;20.70;89.00
16321;DHT22;8269;50.990;4.494;2022-09-09T15:43:46;20.50;89.70
16321;DHT22;8269;50.990;4.494;2022-09-09T15:46:30;20.40;91.00
16321;DHT22;8269;50.990;4.494;2022-09-09T15:49:09;20.30;91.30
16321;DHT22;8269;50.990;4.494;2022-09-09T15:51:37;20.20;91.20
16321;DHT22;8269;50.990;4.494;2022-09-09T15:54:03;20.10;91.20
16321;DHT22;8269;50.990;4.494;2022-09-09T15:56:30;20.10;91.00
16321;DHT22;8269;50.990;4.494;2022-09-09T15:58:58;20.10;91.10
16321;DHT22;8269;50.990;4.494;2022-09-09T16:01:25;20.00;91.40
16321;DHT22;8269;50.990;4.494;2022-09-09T16:03:51;19.90;92.90
16321;DHT22;8269;50.990;4.494;2022-09-09T16:06:20;19.90;94.30
16321;DHT22;8269;50.990;4.494;2022-09-09T16:08:51;19.70;94.80
16321;DHT22;8269;50.990;4.494;2022-09-09T16:11:20;19.50;95.80
16321;DHT22;8269;50.990;4.494;2022-09-09T16:13:48;19.40;96.50
16321;DHT22;8269;50.990;4.494;2022-09-09T16:16:15;19.30;97.50
16321;DHT22;8269;50.990;4.494;2022-09-09T16:18:46;19.30;99.30
16321;DHT22;8269;50.990;4.494;2022-09-09T16:21:18;19.10;99.90
16321;DHT22;8269;50.990;4.494;2022-09-09T16:23:44;19.00;99.90
16321;DHT22;8269;50.990;4.494;2022-09-09T16:26:14;18.90;99.90
16321;DHT22;8269;50.990;4.494;2022-09-09T16:28:41;18.80;99.90
16321;DHT22;8269;50.990;4.494;2022-09-09T16:31:10;18.80;99.90
16321;DHT22;8269;50.990;4.494;2022-09-09T16:33:36;18.90;99.90
16321;DHT22;8269;50.990;4.494;2022-09-09T16:36:17;18.90;99.90
16321;DHT22;8269;50.990;4.494;2022-09-09T16:38:43;18.90;99.90
16321;DHT22;8269;50.990;4.494;2022-09-09T16:41:10;19.00;99.90
16321;DHT22;8269;50.990;4.494;2022-09-09T16:43:37;18.90;99.90
16321;DHT22;8269;50.990;4.494;2022-09-09T16:46:11;18.90;99.90
16321;DHT22;8269;50.990;4.494;2022-09-09T16:51:11;18.70;99.60
16321;DHT22;8269;50.990;4.494;2022-09-09T16:53:37;18.60;99.70
16321;DHT22;8269;50.990;4.494;2022-09-09T16:56:09;18.50;99.90
16321;DHT22;8269;50.990;4.494;2022-09-09T16:58:36;18.50;99.90
16321;DHT22;8269;50.990;4.494;2022-09-09T17:01:02;18.60;99.90
16321;DHT22;8269;50.990;4.494;2022-09-09T17:03:30;18.50;99.90
16321;DHT22;8269;50.990;4.494;2022-09-09T17:05:59;18.60;99.90
16321;DHT22;8269;50.990;4.494;2022-09-09T17:08:30;18.70;99.90
16321;DHT22;8269;50.990;4.494;2022-09-09T17:10:57;18.70;99.40
16321;DHT22;8269;50.990;4.494;2022-09-09T17:13:24;18.80;98.40
16321;DHT22;8269;50.990;4.494;2022-09-09T17:15:50;18.90;98.00
16321;DHT22;8269;50.990;4.494;2022-09-09T17:18:16;18.90;98.00
16321;DHT22;8269;50.990;4.494;2022-09-09T17:20:42;19.00;97.80
16321;DHT22;8269;50.990;4.494;2022-09-09T17:23:10;18.90;97.40
16321;DHT22;8269;50.990;4.494;2022-09-09T17:25:36;18.90;97.00
16321;DHT22;8269;50.990;4.494;2022-09-09T17:28:03;18.80;97.00
16321;DHT22;8269;50.990;4.494;2022-09-09T17:30:38;18.80;97.10
16321;DHT22;8269;50.990;4.494;2022-09-09T17:33:04;18.80;97.50
16321;DHT22;8269;50.990;4.494;2022-09-09T17:35:30;18.70;96.60
16321;DHT22;8269;50.990;4.494;2022-09-09T17:37:56;18.70;97.00
16321;DHT22;8269;50.990;4.494;2022-09-09T17:40:22;18.70;97.20
16321;DHT22;8269;50.990;4.494;2022-09-09T17:42:48;18.60;97.30
16321;DHT22;8269;50.990;4.494;2022-09-09T17:45:14;18.60;97.40
16321;DHT22;8269;50.990;4.494;2022-09-09T17:47:40;18.50;97.20
16321;DHT22;8269;50.990;4.494;2022-09-09T17:50:09;18.50;97.50
16321;DHT22;8269;50.990;4.494;2022-09-09T17:52:42;18.50;96.90
16321;DHT22;8269;50.990;4.494;2022-09-09T17:55:08;18.50;96.90
16321;DHT22;8269;50.990;4.494;2022-09-09T17:57:37;18.50;97.10
16321;DHT22;8269;50.990;4.494;2022-09-09T18:00:05;18.50;97.40
16321;DHT22;8269;50.990;4.494;2022-09-09T18:02:31;18.50;97.10
16321;DHT22;8269;50.990;4.494;2022-09-09T18:04:57;18.40;97.50
16321;DHT22;8269;50.990;4.494;2022-09-09T18:07:23;18.40;97.90
16321;DHT22;8269;50.990;4.494;2022-09-09T18:09:49;18.40;98.20